Time;durP1;ratioP1;P1;durP2;ratioP2;P2;SDS_P1;SDS_P2;PMS_P1;PMS_P2;Temp;Humidity;BMP_temperature;BMP_pressure;BME280_temperature;BME280_humidity;BME280_pressure;Samples;Min_cycle;Max_cycle;Signal;HPM_P1;HPM_P2
2022/10/11 00:02:06;;;;;;;4.03;2.33;;;7.80;99.90;;;;;;6248050;22;20463;-38
2022/10/11 00:04:32;;;;;;;4.37;2.77;;;7.80;99.90;;;;;;6248113;22;20201;-40
2022/10/11 00:06:58;;;;;;;3.10;2.47;;;7.80;99.90;;;;;;6248268;22;20169;-41
2022/10/11 00:09:24;;;;;;;2.53;2.03;;;7.70;99.90;;;;;;6251806;22;20157;-44
2022/10/11 00:11:49;;;;;;;5.43;2.70;;;7.70;99.90;;;;;;6249429;22;20481;-43
2022/10/11 00:14:15;;;;;;;2.97;2.20;;;7.70;99.90;;;;;;6248555;22;20197;-41
2022/10/11 00:16:43;;;;;;;4.20;2.13;;;7.80;99.90;;;;;;6248190;22;20187;-42
2022/10/11 00:19:10;;;;;;;2.80;1.90;;;7.70;99.90;;;;;;6247532;22;20177;-40
2022/10/11 00:21:36;;;;;;;4.23;2.33;;;7.60;99.90;;;;;;6247801;22;20148;-38
2022/10/11 00:24:02;;;;;;;3.33;2.47;;;7.60;99.90;;;;;;6247768;22;20160;-43
2022/10/11 00:26:28;;;;;;;5.00;3.00;;;7.50;99.90;;;;;;6247271;22;20159;-43
2022/10/11 00:28:53;;;;;;;7.10;2.90;;;7.50;99.90;;;;;;6247375;22;20152;-39
2022/10/11 00:31:19;;;;;;;4.90;3.10;;;7.50;99.90;;;;;;6247780;22;20166;-42
2022/10/11 00:33:45;;;;;;;6.20;2.50;;;7.50;99.90;;;;;;6247687;22;20577;-40
2022/10/11 00:36:13;;;;;;;10.03;2.73;;;7.50;99.90;;;;;;6247458;22;20560;-39
2022/10/11 00:38:39;;;;;;;2.07;1.87;;;7.50;99.90;;;;;;6247218;22;20518;-42
2022/10/11 00:41:05;;;;;;;5.00;2.00;;;7.50;99.90;;;;;;6247468;22;20614;-41
2022/10/11 00:43:31;;;;;;;4.40;2.60;;;7.40;99.90;;;;;;6245746;23;20160;-42
2022/10/11 00:45:57;;;;;;;5.60;2.30;;;7.40;99.90;;;;;;6247853;22;20167;-43
2022/10/11 00:48:34;;;;;;;3.73;2.70;;;7.30;99.90;;;;;;6250493;22;20176;-45
2022/10/11 00:51:01;;;;;;;3.47;1.90;;;7.30;99.90;;;;;;6250517;22;20225;-44
2022/10/11 00:53:29;;;;;;;3.63;1.77;;;7.30;99.90;;;;;;6251165;22;20164;-44
2022/10/11 00:56:02;;;;;;;2.17;1.70;;;7.20;99.90;;;;;;6250089;22;20240;-43
2022/10/11 00:58:28;;;;;;;4.10;1.60;;;7.20;99.90;;;;;;6248604;23;20530;-43
2022/10/11 01:00:54;;;;;;;1.83;1.37;;;7.10;99.90;;;;;;6251042;22;20621;-44
2022/10/11 01:03:23;;;;;;;1.70;1.20;;;7.10;99.90;;;;;;6250275;22;20151;-44
2022/10/11 01:05:49;;;;;;;2.23;1.17;;;7.00;99.90;;;;;;6250590;22;20180;-45
2022/10/11 01:08:15;;;;;;;1.80;1.30;;;7.00;99.90;;;;;;6251182;22;20178;-42
2022/10/11 01:10:41;;;;;;;2.30;1.30;;;6.90;99.90;;;;;;6251381;22;20523;-43
2022/10/11 01:13:18;;;;;;;3.00;1.83;;;6.90;99.90;;;;;;6250996;22;20156;-45
2022/10/11 01:16:02;;;;;;;4.00;2.27;;;6.80;99.90;;;;;;6251264;22;20155;-45
2022/10/11 01:18:41;;;;;;;4.27;2.10;;;6.80;99.90;;;;;;6250968;22;20179;-46
2022/10/11 01:21:22;;;;;;;2.93;2.03;;;6.80;99.90;;;;;;6252209;22;20145;-46
2022/10/11 01:24:32;;;;;;;2.80;1.80;;;6.70;99.90;;;;;;6251893;22;20140;-45
2022/10/11 01:27:35;;;;;;;2.20;1.90;;;6.70;99.90;;;;;;6250968;23;20171;-44
2022/10/11 01:30:26;;;;;;;1.90;1.53;;;6.60;99.90;;;;;;6232045;23;20157;-43
2022/10/11 01:33:15;;;;;;;2.20;1.77;;;6.60;99.90;;;;;;6251469;22;20136;-44
2022/10/11 01:35:49;;;;;;;3.37;2.20;;;6.60;99.90;;;;;;6249073;23;20266;-45
2022/10/11 01:38:33;;;;;;;4.80;2.50;;;6.50;99.90;;;;;;6251517;22;20188;-45
2022/10/11 01:41:05;;;;;;;2.60;2.03;;;6.40;99.90;;;;;;6251565;23;20143;-45
2022/10/11 01:43:32;;;;;;;2.17;1.47;;;6.50;99.90;;;;;;6251475;22;20151;-44
2022/10/11 01:45:59;;;;;;;3.47;1.80;;;6.40;99.90;;;;;;6251423;22;20286;-44
2022/10/11 01:48:24;;;;;;;1.30;1.10;;;6.40;99.90;;;;;;6251590;22;20171;-44
2022/10/11 01:50:57;;;;;;;1.70;1.40;;;6.40;99.90;;;;;;6252012;22;20613;-45
2022/10/11 01:53:29;;;;;;;1.87;1.37;;;6.30;99.90;;;;;;6250434;23;20535;-44
2022/10/11 01:55:58;;;;;;;1.30;1.20;;;6.30;99.90;;;;;;6251700;22;20175;-44
2022/10/11 01:58:42;;;;;;;1.20;1.10;;;6.30;99.90;;;;;;6251946;22;20509;-46
2022/10/11 02:01:33;;;;;;;1.40;1.30;;;6.20;99.90;;;;;;6252613;23;20139;-46
2022/10/11 02:04:06;;;;;;;3.63;1.30;;;6.20;99.90;;;;;;6252328;22;20151;-44
2022/10/11 02:07:06;;;;;;;2.23;1.23;;;6.10;99.90;;;;;;6251801;22;20187;-45
2022/10/11 02:09:45;;;;;;;1.70;1.60;;;6.10;99.90;;;;;;6251500;22;20163;-44
2022/10/11 02:12:17;;;;;;;1.33;1.20;;;6.10;99.90;;;;;;6250285;23;20151;-43
2022/10/11 02:14:50;;;;;;;1.10;1.00;;;6.00;99.90;;;;;;6252221;23;20527;-44
2022/10/11 02:17:21;;;;;;;2.03;1.77;;;6.00;99.90;;;;;;6252009;22;20197;-42
2022/10/11 02:19:51;;;;;;;2.93;1.37;;;6.00;99.90;;;;;;6251301;23;20167;-43
2022/10/11 02:22:25;;;;;;;2.33;1.50;;;6.00;99.90;;;;;;6252061;22;20151;-45
2022/10/11 02:24:56;;;;;;;1.30;1.20;;;6.00;99.90;;;;;;6252424;22;20166;-45
2022/10/11 02:27:32;;;;;;;1.70;1.40;;;6.00;99.90;;;;;;6252213;22;20175;-45
2022/10/11 02:30:06;;;;;;;1.43;1.33;;;6.00;99.90;;;;;;6250674;23;20139;-46
2022/10/11 02:32:35;;;;;;;1.63;1.23;;;5.90;99.90;;;;;;6250869;22;20154;-44
2022/10/11 02:35:02;;;;;;;2.07;1.70;;;5.90;99.90;;;;;;6250841;22;20156;-46
2022/10/11 02:37:51;;;;;;;1.50;1.40;;;5.90;99.90;;;;;;6250337;22;20191;-44
2022/10/11 02:40:27;;;;;;;1.43;1.23;;;5.90;99.90;;;;;;6246334;22;20163;-38
2022/10/11 02:43:17;;;;;;;1.53;1.43;;;5.80;99.90;;;;;;6246620;22;20609;-40
2022/10/11 02:45:48;;;;;;;1.80;1.40;;;5.80;99.90;;;;;;6244739;23;20174;-41
2022/10/11 02:48:14;;;;;;;4.40;1.60;;;5.80;99.90;;;;;;6246401;22;20171;-41
2022/10/11 02:50:42;;;;;;;2.10;1.77;;;5.80;99.90;;;;;;6246364;22;20179;-40
2022/10/11 02:53:08;;;;;;;5.23;2.27;;;5.70;99.90;;;;;;6247723;22;20162;-40
2022/10/11 02:55:34;;;;;;;2.43;1.77;;;5.70;99.90;;;;;;6246806;22;20234;-40
2022/10/11 02:58:00;;;;;;;6.50;2.17;;;5.70;99.90;;;;;;6246462;22;20171;-41
2022/10/11 03:00:26;;;;;;;2.47;1.87;;;5.70;99.90;;;;;;6246797;22;20154;-39
2022/10/11 03:02:51;;;;;;;3.67;2.57;;;5.70;99.90;;;;;;6246232;22;20194;-41
2022/10/11 03:05:17;;;;;;;5.70;2.17;;;5.70;99.90;;;;;;6246978;22;20159;-39
2022/10/11 03:07:42;;;;;;;4.07;2.53;;;5.70;99.90;;;;;;6246742;22;20177;-41
2022/10/11 03:10:09;;;;;;;3.37;2.40;;;5.70;99.90;;;;;;6246895;22;20192;-39
2022/10/11 03:12:34;;;;;;;3.47;2.00;;;5.70;99.90;;;;;;6246740;22;20167;-38
2022/10/11 03:15:00;;;;;;;2.47;2.00;;;5.70;99.90;;;;;;6246497;22;20594;-39
2022/10/11 03:17:26;;;;;;;3.87;1.93;;;5.70;99.90;;;;;;6247386;22;20179;-40
2022/10/11 03:19:52;;;;;;;2.57;2.00;;;5.70;99.90;;;;;;6246523;22;20633;-40
2022/10/11 03:22:18;;;;;;;2.87;2.00;;;5.60;99.90;;;;;;6246302;23;20155;-37
2022/10/11 03:24:43;;;;;;;2.40;1.90;;;5.60;99.90;;;;;;6245986;22;20212;-39
2022/10/11 03:27:09;;;;;;;1.60;1.50;;;5.60;99.90;;;;;;6245876;22;20245;-40
2022/10/11 03:29:35;;;;;;;2.00;1.80;;;5.70;99.90;;;;;;6246361;22;20156;-39
2022/10/11 03:32:00;;;;;;;4.17;1.57;;;5.60;99.90;;;;;;6246301;22;20163;-40
2022/10/11 03:34:26;;;;;;;1.57;1.40;;;5.60;99.90;;;;;;6246129;22;20494;-40
2022/10/11 03:36:51;;;;;;;2.50;2.10;;;5.60;99.90;;;;;;6245977;22;20249;-39
2022/10/11 03:39:17;;;;;;;3.70;2.23;;;5.50;99.90;;;;;;6246068;22;20194;-46
2022/10/11 03:41:43;;;;;;;3.07;2.10;;;5.50;99.90;;;;;;6246031;22;20534;-41
2022/10/11 03:44:08;;;;;;;4.07;2.50;;;5.50;99.90;;;;;;6244345;23;20602;-39
2022/10/11 03:46:34;;;;;;;3.83;2.57;;;5.50;99.90;;;;;;6245825;22;20236;-40
2022/10/11 03:48:59;;;;;;;2.17;1.97;;;5.40;99.90;;;;;;6246145;22;20492;-40
2022/10/11 03:51:25;;;;;;;2.17;1.97;;;5.40;99.90;;;;;;6245780;22;20484;-39
2022/10/11 03:53:50;;;;;;;2.20;1.83;;;5.30;99.90;;;;;;6244530;23;20204;-40
2022/10/11 03:56:16;;;;;;;2.03;1.73;;;5.30;99.90;;;;;;6247645;22;20166;-40
2022/10/11 03:58:41;;;;;;;2.53;1.70;;;5.30;99.90;;;;;;6247608;22;20177;-42
2022/10/11 04:01:07;;;;;;;1.93;1.60;;;5.30;99.90;;;;;;6247061;23;20155;-40
2022/10/11 04:03:33;;;;;;;2.50;1.80;;;5.20;99.90;;;;;;6246368;23;20153;-39
2022/10/11 04:05:59;;;;;;;4.27;1.83;;;5.20;99.90;;;;;;6248404;22;20239;-40
2022/10/11 04:08:24;;;;;;;2.30;1.77;;;5.10;99.90;;;;;;6247557;22;20535;-37
2022/10/11 04:10:50;;;;;;;4.40;1.80;;;5.10;99.90;;;;;;6248382;22;20213;-38
2022/10/11 04:13:16;;;;;;;2.60;1.87;;;5.00;99.90;;;;;;6248660;22;20162;-38
2022/10/11 04:15:42;;;;;;;6.73;2.20;;;5.00;99.90;;;;;;6248903;22;20158;-41
2022/10/11 04:18:08;;;;;;;1.77;1.67;;;5.00;99.90;;;;;;6247449;22;20184;-38
2022/10/11 04:20:34;;;;;;;2.47;2.03;;;4.90;99.90;;;;;;6247307;22;20654;-39
2022/10/11 04:23:00;;;;;;;2.33;1.70;;;4.90;99.90;;;;;;6247634;22;20154;-38
2022/10/11 04:25:25;;;;;;;3.10;1.63;;;4.90;99.90;;;;;;6247411;22;20165;-37
2022/10/11 04:27:51;;;;;;;4.43;1.90;;;4.90;99.90;;;;;;6247335;22;20175;-38
2022/10/11 04:30:17;;;;;;;2.43;1.80;;;4.90;99.90;;;;;;6248549;22;20160;-38
2022/10/11 04:32:44;;;;;;;3.80;1.70;;;4.80;99.90;;;;;;6247639;22;20217;-38
2022/10/11 04:35:10;;;;;;;4.03;2.20;;;4.80;99.90;;;;;;6245822;23;20166;-40
2022/10/11 04:37:36;;;;;;;2.60;2.13;;;4.80;99.90;;;;;;6245593;23;20299;-38
2022/10/11 04:40:03;;;;;;;4.37;2.13;;;4.70;99.90;;;;;;6247580;22;20187;-40
2022/10/11 04:42:28;;;;;;;2.20;2.00;;;4.70;99.90;;;;;;6247334;22;20620;-39
2022/10/11 04:44:54;;;;;;;2.47;1.90;;;4.70;99.90;;;;;;6247639;22;20150;-42
2022/10/11 04:47:19;;;;;;;2.57;2.00;;;4.60;99.90;;;;;;6246158;23;20620;-38
2022/10/11 04:49:45;;;;;;;4.43;1.83;;;4.60;99.90;;;;;;6247407;22;20592;-41
2022/10/11 04:52:10;;;;;;;2.33;1.90;;;4.50;99.90;;;;;;6247243;22;20159;-38
2022/10/11 04:54:36;;;;;;;2.60;2.03;;;4.50;99.90;;;;;;6247253;22;20504;-39
2022/10/11 04:57:01;;;;;;;2.20;1.90;;;4.50;99.90;;;;;;6247550;22;20254;-40
2022/10/11 04:59:27;;;;;;;2.00;1.77;;;4.40;99.90;;;;;;6245889;23;20560;-38
2022/10/11 05:01:52;;;;;;;1.63;1.53;;;4.40;99.90;;;;;;6248330;22;20146;-45
2022/10/11 05:04:18;;;;;;;2.37;1.80;;;4.40;99.90;;;;;;6250152;22;20224;-45
2022/10/11 05:06:44;;;;;;;3.13;2.03;;;4.40;99.90;;;;;;6249112;22;20169;-43
2022/10/11 05:09:10;;;;;;;3.27;2.20;;;4.40;99.90;;;;;;6249489;22;20226;-44
2022/10/11 05:11:35;;;;;;;2.43;2.20;;;4.40;99.90;;;;;;6249373;22;20188;-44
2022/10/11 05:14:01;;;;;;;2.03;1.83;;;4.30;99.90;;;;;;6247692;23;20235;-44
2022/10/11 05:16:27;;;;;;;2.60;1.83;;;4.30;99.90;;;;;;6247570;23;20474;-44
2022/10/11 05:18:53;;;;;;;2.47;2.00;;;4.30;99.90;;;;;;6249943;22;20222;-43
2022/10/11 05:21:24;;;;;;;4.13;2.07;;;4.20;99.90;;;;;;6249584;22;20153;-43
2022/10/11 05:23:51;;;;;;;2.63;1.80;;;4.20;99.90;;;;;;6249975;22;20145;-46
2022/10/11 05:26:18;;;;;;;3.10;2.13;;;4.20;99.90;;;;;;6248953;22;20157;-43
2022/10/11 05:28:45;;;;;;;4.83;2.60;;;4.20;99.90;;;;;;6249677;22;20580;-46
2022/10/11 05:31:11;;;;;;;2.40;1.83;;;4.20;99.90;;;;;;6247600;23;20171;-45
2022/10/11 05:33:37;;;;;;;3.40;2.33;;;4.20;99.90;;;;;;6249286;22;20533;-44
2022/10/11 05:36:04;;;;;;;13.97;2.00;;;4.20;99.90;;;;;;6248904;22;20187;-44
2022/10/11 05:38:30;;;;;;;4.93;1.70;;;4.20;99.90;;;;;;6249127;22;20676;-44
2022/10/11 05:41:01;;;;;;;4.33;1.70;;;4.20;99.90;;;;;;6249685;22;20150;-43
2022/10/11 05:43:27;;;;;;;4.40;1.73;;;4.20;99.90;;;;;;6249558;22;20164;-45
2022/10/11 05:45:53;;;;;;;4.40;1.77;;;4.20;99.90;;;;;;6249253;22;20148;-42
2022/10/11 05:48:20;;;;;;;2.60;2.13;;;4.20;99.90;;;;;;6250049;22;20629;-45
2022/10/11 05:50:45;;;;;;;1.90;1.60;;;4.20;99.90;;;;;;6247739;23;20152;-44
2022/10/11 05:53:11;;;;;;;3.93;2.10;;;4.20;99.90;;;;;;6249536;22;20152;-45
2022/10/11 05:55:38;;;;;;;2.03;1.70;;;4.30;99.90;;;;;;6248713;22;20161;-44
2022/10/11 05:58:05;;;;;;;2.50;2.03;;;4.20;99.90;;;;;;6247468;23;20184;-47
2022/10/11 06:00:31;;;;;;;1.90;1.57;;;4.20;99.90;;;;;;6249616;22;20149;-42
2022/10/11 06:02:57;;;;;;;2.40;1.80;;;4.20;99.90;;;;;;6248930;22;20212;-45
2022/10/11 06:05:22;;;;;;;2.43;1.90;;;4.20;99.90;;;;;;6248557;22;20187;-43
2022/10/11 06:07:48;;;;;;;2.37;2.03;;;4.20;99.90;;;;;;6249067;22;20169;-44
2022/10/11 06:10:13;;;;;;;2.60;1.73;;;4.20;99.90;;;;;;6249144;22;20161;-43
2022/10/11 06:12:39;;;;;;;2.40;2.20;;;4.20;99.90;;;;;;6248040;23;20162;-44
2022/10/11 06:15:06;;;;;;;2.97;2.10;;;4.20;99.90;;;;;;6249921;22;20153;-46
2022/10/11 06:17:31;;;;;;;2.27;1.67;;;4.20;99.90;;;;;;6249857;22;20178;-43
2022/10/11 06:19:57;;;;;;;2.10;1.90;;;4.20;99.90;;;;;;6248263;22;20175;-44
2022/10/11 06:22:23;;;;;;;2.10;1.73;;;4.20;99.90;;;;;;6248524;22;20149;-44
2022/10/11 06:24:48;;;;;;;2.37;1.90;;;4.20;99.90;;;;;;6248521;22;20165;-44
2022/10/11 06:27:14;;;;;;;3.83;1.87;;;4.20;99.90;;;;;;6248955;22;20505;-44
2022/10/11 06:29:39;;;;;;;2.33;1.67;;;4.20;99.90;;;;;;6248912;22;20162;-44
2022/10/11 06:32:05;;;;;;;5.27;1.73;;;4.20;99.90;;;;;;6249831;22;20160;-46
2022/10/11 06:34:31;;;;;;;4.27;2.33;;;4.20;99.90;;;;;;6249014;22;20154;-46
2022/10/11 06:36:57;;;;;;;2.40;1.83;;;4.20;99.90;;;;;;6247826;23;20246;-44
2022/10/11 06:39:22;;;;;;;2.07;1.53;;;4.20;99.90;;;;;;6248717;22;20257;-45
2022/10/11 06:41:48;;;;;;;2.00;1.70;;;4.30;99.90;;;;;;6249016;22;20156;-44
2022/10/11 06:44:14;;;;;;;2.30;2.00;;;4.20;99.90;;;;;;6249547;22;20179;-44
2022/10/11 06:46:40;;;;;;;3.00;1.50;;;4.30;99.90;;;;;;6247639;23;20176;-45
2022/10/11 06:49:06;;;;;;;2.00;1.50;;;4.30;99.90;;;;;;6249552;22;20212;-43
2022/10/11 06:51:34;;;;;;;17.33;2.30;;;4.30;99.90;;;;;;6247577;23;20218;-45
2022/10/11 06:54:00;;;;;;;4.37;2.20;;;4.40;99.90;;;;;;6247329;23;20512;-46
2022/10/11 06:56:27;;;;;;;2.73;2.27;;;4.50;99.90;;;;;;6249265;22;20183;-44
2022/10/11 06:58:54;;;;;;;2.93;2.47;;;4.50;99.90;;;;;;6247090;23;20184;-44
2022/10/11 07:01:22;;;;;;;4.63;2.40;;;4.50;99.90;;;;;;6249102;22;20148;-44
2022/10/11 07:03:49;;;;;;;3.87;2.67;;;4.60;99.90;;;;;;6247695;22;20159;-42
2022/10/11 07:06:17;;;;;;;4.40;2.37;;;4.70;99.90;;;;;;6245862;22;20152;-42
2022/10/11 07:08:43;;;;;;;3.27;2.30;;;4.70;99.90;;;;;;6246154;22;20164;-42
2022/10/11 07:11:11;;;;;;;3.70;2.53;;;4.80;99.90;;;;;;6246018;22;20161;-44
2022/10/11 07:13:37;;;;;;;3.30;2.77;;;4.90;99.90;;;;;;6246084;22;20167;-42
2022/10/11 07:16:05;;;;;;;6.00;3.10;;;5.00;99.90;;;;;;6246198;22;20163;-41
2022/10/11 07:18:31;;;;;;;5.33;2.70;;;5.00;99.90;;;;;;6245564;22;20215;-45
2022/10/11 07:20:57;;;;;;;5.53;3.00;;;5.10;99.90;;;;;;6246208;22;20152;-45
2022/10/11 07:23:23;;;;;;;5.67;3.43;;;5.30;99.90;;;;;;6245773;22;20206;-41
2022/10/11 07:25:53;;;;;;;9.40;4.00;;;5.40;99.90;;;;;;6245976;22;20156;-42
2022/10/11 07:28:19;;;;;;;6.27;4.00;;;5.50;99.90;;;;;;6244446;23;20174;-44
2022/10/11 07:30:44;;;;;;;7.80;4.60;;;5.60;99.90;;;;;;6248002;22;20185;-42
2022/10/11 07:33:10;;;;;;;10.37;5.30;;;5.80;99.90;;;;;;6247801;22;20210;-44
2022/10/11 07:35:36;;;;;;;12.70;6.43;;;6.00;99.90;;;;;;6248125;22;20158;-42
2022/10/11 07:38:05;;;;;;;14.87;7.23;;;6.10;99.90;;;;;;6247662;22;20189;-43
2022/10/11 07:40:32;;;;;;;19.37;7.87;;;6.30;99.90;;;;;;6248083;22;20242;-44
2022/10/11 07:42:59;;;;;;;16.57;7.50;;;6.50;99.90;;;;;;6246163;23;20633;-44
2022/10/11 07:45:27;;;;;;;14.80;7.03;;;6.60;99.90;;;;;;6249674;22;20157;-42
2022/10/11 07:47:55;;;;;;;16.10;7.17;;;6.80;99.90;;;;;;6247680;22;20174;-42
2022/10/11 07:50:21;;;;;;;17.67;7.57;;;6.90;99.90;;;;;;6246079;23;20164;-43
2022/10/11 07:52:46;;;;;;;15.40;7.73;;;7.00;99.90;;;;;;6247567;22;20199;-45
2022/10/11 07:55:12;;;;;;;15.97;8.33;;;7.20;99.90;;;;;;6247858;22;20183;-43
2022/10/11 07:57:37;;;;;;;19.50;7.43;;;7.30;99.90;;;;;;6245922;23;20184;-42
2022/10/11 08:00:04;;;;;;;19.03;7.97;;;7.40;99.90;;;;;;6246170;23;20573;-42
2022/10/11 08:02:29;;;;;;;28.60;9.57;;;7.50;99.90;;;;;;6247504;22;20157;-44
2022/10/11 08:04:55;;;;;;;25.37;9.60;;;7.60;99.90;;;;;;6247528;22;20156;-43
2022/10/11 08:07:21;;;;;;;22.03;9.77;;;7.70;99.90;;;;;;6247415;22;20507;-44
2022/10/11 08:09:46;;;;;;;22.17;9.57;;;7.80;99.90;;;;;;6247491;22;20168;-45
2022/10/11 08:12:12;;;;;;;25.03;10.07;;;7.90;99.90;;;;;;6245943;23;20541;-45
2022/10/11 08:14:40;;;;;;;19.40;9.73;;;8.00;99.90;;;;;;6247620;22;20158;-43
2022/10/11 08:17:06;;;;;;;26.23;10.47;;;8.20;99.90;;;;;;6245995;23;20182;-43
2022/10/11 08:19:32;;;;;;;28.00;11.37;;;8.30;99.90;;;;;;6245769;23;20229;-45
2022/10/11 08:21:57;;;;;;;21.20;10.53;;;8.40;99.90;;;;;;6247769;22;20148;-43
2022/10/11 08:24:24;;;;;;;20.97;11.33;;;8.50;99.90;;;;;;6247870;22;20152;-45
2022/10/11 08:26:50;;;;;;;26.03;11.67;;;8.50;99.90;;;;;;6248041;22;20171;-43
2022/10/11 08:29:15;;;;;;;29.47;11.93;;;8.70;99.90;;;;;;6248793;22;20156;-42
2022/10/11 08:31:43;;;;;;;26.13;11.13;;;8.70;99.90;;;;;;6247593;22;20678;-44
2022/10/11 08:34:09;;;;;;;29.13;11.77;;;8.80;99.90;;;;;;6245691;23;20222;-42
2022/10/11 08:36:36;;;;;;;26.23;11.93;;;8.90;99.90;;;;;;6247271;22;20195;-44
2022/10/11 08:39:03;;;;;;;27.40;12.43;;;9.00;99.90;;;;;;6245589;23;20186;-45
2022/10/11 08:41:40;;;;;;;27.00;12.77;;;9.10;99.90;;;;;;6245525;23;20163;-45
2022/10/11 08:44:15;;;;;;;20.40;10.73;;;9.20;99.90;;;;;;6247140;22;20175;-43
2022/10/11 08:46:47;;;;;;;29.60;13.33;;;9.30;99.90;;;;;;6245545;23;20218;-46
2022/10/11 08:49:17;;;;;;;24.73;9.80;;;9.40;99.90;;;;;;6247136;22;20196;-44
2022/10/11 08:51:51;;;;;;;28.57;10.10;;;9.50;99.90;;;;;;6220690;23;20159;-45
2022/10/11 08:54:43;;;;;;;19.20;9.80;;;9.60;99.90;;;;;;6247400;22;20147;-44
2022/10/11 08:57:13;;;;;;;23.93;9.20;;;9.70;99.90;;;;;;6247856;22;20614;-42
2022/10/11 08:59:49;;;;;;;30.23;10.10;;;9.90;99.90;;;;;;6247294;22;20498;-42
2022/10/11 09:02:47;;;;;;;28.37;9.53;;;10.00;99.90;;;;;;6246994;22;20223;-43
2022/10/11 09:05:15;;;;;;;21.70;8.97;;;10.10;99.90;;;;;;6247174;23;20141;-45
2022/10/11 09:07:53;;;;;;;20.87;8.47;;;10.20;99.90;;;;;;6247014;22;20195;-44
2022/10/11 09:10:24;;;;;;;24.33;8.70;;;10.30;99.90;;;;;;6245627;23;20229;-44
2022/10/11 09:13:07;;;;;;;19.70;9.07;;;10.50;99.90;;;;;;6247078;22;20162;-41
2022/10/11 09:15:52;;;;;;;22.90;7.00;;;10.50;99.90;;;;;;6247506;22;20152;-44
2022/10/11 09:18:39;;;;;;;18.53;7.37;;;10.70;99.90;;;;;;6248803;22;20184;-44
2022/10/11 09:21:28;;;;;;;17.10;6.83;;;10.70;99.90;;;;;;6250800;22;20156;-42
2022/10/11 09:24:33;;;;;;;20.17;6.87;;;10.90;99.90;;;;;;6200129;22;20162;-45
2022/10/11 09:27:18;;;;;;;16.67;5.60;;;10.90;99.90;;;;;;6247349;22;20173;-43
2022/10/11 09:30:01;;;;;;;22.80;5.70;;;11.00;99.90;;;;;;6246848;22;20236;-44
2022/10/11 09:32:36;;;;;;;19.93;6.83;;;11.00;99.90;;;;;;6247523;22;20148;-45
2022/10/11 09:35:12;;;;;;;10.20;5.13;;;11.10;99.90;;;;;;6246938;22;20186;-43
2022/10/11 09:37:43;;;;;;;16.93;5.60;;;11.30;99.90;;;;;;6246549;22;20202;-44
2022/10/11 09:40:09;;;;;;;17.60;6.03;;;11.30;99.90;;;;;;6246940;22;20179;-42
2022/10/11 09:42:34;;;;;;;14.97;4.93;;;11.50;99.90;;;;;;6246541;22;20627;-43
2022/10/11 09:45:01;;;;;;;8.97;3.87;;;11.50;99.90;;;;;;6246925;22;20160;-43
2022/10/11 09:47:29;;;;;;;12.63;4.73;;;11.60;99.90;;;;;;6246768;22;20183;-41
2022/10/11 09:50:01;;;;;;;13.90;3.83;;;11.70;99.90;;;;;;6246860;22;20166;-44
2022/10/11 09:52:27;;;;;;;13.77;5.27;;;11.80;99.90;;;;;;6246669;22;20163;-44
2022/10/11 09:55:02;;;;;;;11.67;4.57;;;11.80;99.90;;;;;;6246458;22;20663;-44
2022/10/11 09:57:35;;;;;;;13.50;4.13;;;11.90;99.90;;;;;;6246689;22;20175;-43
2022/10/11 10:00:07;;;;;;;12.40;4.03;;;11.90;99.90;;;;;;6246664;22;20187;-46
2022/10/11 10:02:46;;;;;;;15.30;4.47;;;12.00;99.90;;;;;;6245581;23;20163;-42
2022/10/11 10:05:17;;;;;;;15.03;4.10;;;12.10;99.90;;;;;;6246496;22;20143;-44
2022/10/11 10:07:56;;;;;;;12.30;4.10;;;12.30;99.90;;;;;;6244821;23;20629;-44
2022/10/11 10:10:37;;;;;;;11.67;3.70;;;12.40;99.90;;;;;;6246586;22;20639;-42
2022/10/11 10:13:08;;;;;;;11.53;4.00;;;12.50;99.90;;;;;;6246668;22;20519;-45
2022/10/11 10:15:35;;;;;;;15.37;3.83;;;12.70;99.90;;;;;;6244731;23;20160;-42
2022/10/11 10:18:04;;;;;;;15.33;4.33;;;12.80;99.90;;;;;;6246296;22;20171;-45
2022/10/11 10:20:33;;;;;;;17.03;3.90;;;12.90;99.90;;;;;;6244641;23;20168;-45
2022/10/11 10:23:07;;;;;;;18.73;4.80;;;13.20;99.90;;;;;;6246398;22;20182;-42
2022/10/11 10:25:37;;;;;;;13.20;3.83;;;13.30;99.90;;;;;;6246626;22;20167;-44
2022/10/11 10:28:24;;;;;;;11.97;4.30;;;13.40;99.90;;;;;;6246349;22;20248;-42
2022/10/11 10:30:56;;;;;;;12.77;5.10;;;13.40;99.90;;;;;;6244740;23;20159;-44
2022/10/11 10:33:24;;;;;;;15.40;6.30;;;13.60;99.90;;;;;;6246801;22;20223;-42
2022/10/11 10:35:52;;;;;;;11.93;5.40;;;13.70;99.90;;;;;;6246425;22;20191;-44
2022/10/11 10:38:30;;;;;;;15.80;5.63;;;13.80;99.90;;;;;;6244564;23;20175;-46
2022/10/11 10:41:00;;;;;;;20.10;7.33;;;13.90;99.90;;;;;;6246378;22;20523;-45
2022/10/11 10:43:37;;;;;;;17.33;9.20;;;14.00;99.90;;;;;;6246525;22;20159;-42
2022/10/11 10:46:20;;;;;;;20.33;10.27;;;14.00;99.90;;;;;;6246146;22;20570;-45
2022/10/11 10:48:54;;;;;;;14.13;8.97;;;14.10;99.90;;;;;;6246506;22;20144;-46
2022/10/11 10:51:43;;;;;;;16.23;8.23;;;14.20;99.90;;;;;;6244612;23;20162;-45
2022/10/11 10:54:30;;;;;;;18.83;8.67;;;14.30;99.90;;;;;;6246283;22;20163;-44
2022/10/11 10:57:10;;;;;;;18.67;10.03;;;14.20;99.90;;;;;;6246329;22;20175;-46
2022/10/11 10:59:54;;;;;;;15.50;7.37;;;14.20;99.90;;;;;;6246138;22;20206;-45
2022/10/11 11:02:26;;;;;;;12.63;6.13;;;14.40;99.90;;;;;;6246811;22;20139;-43
2022/10/11 11:05:20;;;;;;;13.70;6.17;;;14.60;99.90;;;;;;6247378;22;20176;-44
2022/10/11 11:08:07;;;;;;;14.93;5.83;;;14.80;99.90;;;;;;6248180;22;20242;-45
2022/10/11 11:10:40;;;;;;;14.63;5.33;;;14.90;99.90;;;;;;6248403;23;20147;-45
2022/10/11 11:13:37;;;;;;;12.23;4.63;;;15.00;99.90;;;;;;6248287;22;20160;-45
2022/10/11 11:16:22;;;;;;;11.27;3.73;;;15.00;99.90;;;;;;6246588;23;20152;-46
2022/10/11 11:18:55;;;;;;;6.60;3.67;;;15.20;99.90;;;;;;6248070;22;20175;-45
2022/10/11 11:21:35;;;;;;;7.77;2.53;;;15.40;99.90;;;;;;6248045;22;20136;-46
2022/10/11 11:24:25;;;;;;;11.47;3.10;;;15.50;99.90;;;;;;6248438;22;20139;-46
2022/10/11 11:26:57;;;;;;;8.53;2.63;;;15.70;99.90;;;;;;6246519;23;20258;-44
2022/10/11 11:29:55;;;;;;;9.17;1.93;;;15.80;99.90;;;;;;6248155;22;20159;-45
2022/10/11 11:32:37;;;;;;;9.77;2.50;;;15.90;99.90;;;;;;6246803;23;20155;-45
2022/10/11 11:35:09;;;;;;;9.43;2.67;;;15.90;99.90;;;;;;6248126;22;20146;-44
2022/10/11 11:37:39;;;;;;;7.50;2.40;;;16.00;99.90;;;;;;6247814;22;20234;-46
2022/10/11 11:40:15;;;;;;;5.83;2.07;;;16.00;99.90;;;;;;6247762;22;20618;-45
2022/10/11 11:42:42;;;;;;;9.80;2.40;;;16.00;99.90;;;;;;6248035;22;20612;-44
2022/10/11 11:45:22;;;;;;;4.63;1.87;;;16.00;99.90;;;;;;6248386;22;20159;-40
2022/10/11 11:48:10;;;;;;;8.80;2.47;;;16.10;99.90;;;;;;6248306;22;20610;-41
2022/10/11 11:51:01;;;;;;;9.53;2.33;;;16.00;99.90;;;;;;6248403;22;20144;-43
2022/10/11 11:54:08;;;;;;;7.97;2.50;;;16.00;99.90;;;;;;6247934;22;20175;-41
2022/10/11 11:56:55;;;;;;;5.63;1.90;;;15.90;99.90;;;;;;6216722;22;20183;-39
2022/10/11 11:59:46;;;;;;;7.77;2.03;;;16.00;99.90;;;;;;6247655;23;20174;-41
2022/10/11 12:02:40;;;;;;;9.40;2.47;;;16.10;99.90;;;;;;6246192;23;20158;-42
2022/10/11 12:05:07;;;;;;;8.87;1.93;;;16.30;99.90;;;;;;6248128;22;20585;-41
2022/10/11 12:07:47;;;;;;;6.33;1.70;;;16.40;99.90;;;;;;6247967;22;20176;-41
2022/10/11 12:10:35;;;;;;;8.73;2.50;;;16.50;99.90;;;;;;6247909;22;20143;-44
2022/10/11 12:13:43;;;;;;;12.97;2.20;;;16.60;99.90;;;;;;6247485;23;20140;-43
2022/10/11 12:16:12;;;;;;;4.90;2.10;;;16.70;99.90;;;;;;6247782;22;20482;-40
2022/10/11 12:18:56;;;;;;;10.50;3.40;;;16.80;99.90;;;;;;6247738;22;20260;-43
2022/10/11 12:21:24;;;;;;;13.07;3.90;;;16.70;99.90;;;;;;6247597;22;20597;-41
2022/10/11 12:23:52;;;;;;;12.03;2.67;;;16.50;99.90;;;;;;6247968;22;20152;-41
2022/10/11 12:26:27;;;;;;;7.63;2.37;;;16.40;99.90;;;;;;6247546;22;20147;-40
2022/10/11 12:29:17;;;;;;;8.90;2.20;;;16.40;99.90;;;;;;6247552;22;20151;-41
2022/10/11 12:31:44;;;;;;;8.50;2.20;;;16.50;99.90;;;;;;6247923;22;20136;-43
2022/10/11 12:34:35;;;;;;;7.33;3.87;;;16.70;99.90;;;;;;6247700;22;20152;-41
2022/10/11 12:37:30;;;;;;;5.87;2.47;;;16.60;99.90;;;;;;6247665;22;20195;-43
2022/10/11 12:39:59;;;;;;;5.53;1.73;;;16.50;99.90;;;;;;6227712;23;20183;-42
2022/10/11 12:42:34;;;;;;;10.03;3.87;;;16.40;99.90;;;;;;6248433;22;20186;-44
2022/10/11 12:45:11;;;;;;;8.47;3.17;;;16.30;99.90;;;;;;6248517;22;20202;-41
2022/10/11 12:48:05;;;;;;;9.90;2.33;;;16.30;99.90;;;;;;6248016;22;20172;-40
2022/10/11 12:50:36;;;;;;;8.23;3.00;;;16.40;99.90;;;;;;6247514;23;20140;-43
2022/10/11 12:53:24;;;;;;;8.33;2.37;;;16.50;99.90;;;;;;6247961;22;20152;-42
2022/10/11 12:56:20;;;;;;;6.13;1.90;;;16.50;99.90;;;;;;6247350;22;20223;-44
2022/10/11 12:58:47;;;;;;;7.57;2.10;;;16.60;99.90;;;;;;6200535;22;20190;-40
2022/10/11 13:01:19;;;;;;;4.63;1.93;;;16.80;99.90;;;;;;6247187;22;20171;-39
2022/10/11 13:03:58;;;;;;;6.83;2.50;;;17.00;99.90;;;;;;6247221;22;20168;-38
2022/10/11 13:06:49;;;;;;;10.63;2.27;;;17.20;99.90;;;;;;6247419;22;20223;-43
2022/10/11 13:09:34;;;;;;;9.17;2.40;;;17.30;99.90;;;;;;6246188;23;20186;-41
2022/10/11 13:12:17;;;;;;;7.43;2.20;;;17.30;99.90;;;;;;6247066;22;20167;-41
2022/10/11 13:14:46;;;;;;;5.60;1.90;;;17.40;99.90;;;;;;6247097;22;20223;-42